Time;durP1;ratioP1;P1;durP2;ratioP2;P2;SDS_P1;SDS_P2;PMS_P1;PMS_P2;Temp;Humidity;BMP_temperature;BMP_pressure;BME280_temperature;BME280_humidity;BME280_pressure;Samples;Min_cycle;Max_cycle;Signal;HPM_P1;HPM_P2
2021/12/15 00:01:09;;;;;;;190.90;116.03;;;5.40;99.90;;;;;;5086573;28;20032;-52
2021/12/15 00:03:36;;;;;;;212.90;131.88;;;5.30;99.90;;;;;;5039139;28;20039;-51
2021/12/15 00:06:03;;;;;;;213.65;130.32;;;5.20;99.90;;;;;;5091324;28;20067;-50
2021/12/15 00:08:29;;;;;;;201.93;121.10;;;5.30;99.90;;;;;;5090783;28;20956;-51
2021/12/15 00:10:55;;;;;;;228.57;132.05;;;5.30;99.90;;;;;;5053830;28;20395;-50
2021/12/15 00:13:23;;;;;;;210.15;122.60;;;5.20;99.90;;;;;;5077427;28;20050;-50
2021/12/15 00:15:49;;;;;;;194.15;116.80;;;5.20;99.90;;;;;;5089731;28;20093;-51
2021/12/15 00:18:15;;;;;;;204.57;120.50;;;5.20;99.90;;;;;;5082266;28;20454;-51
2021/12/15 00:20:43;;;;;;;197.00;119.30;;;5.10;99.90;;;;;;5079013;28;20414;-51
2021/12/15 00:23:09;;;;;;;180.52;110.05;;;5.10;99.90;;;;;;5072666;28;20020;-52
2021/12/15 00:25:39;;;;;;;164.20;105.00;;;5.20;99.90;;;;;;5083618;28;20033;-51
2021/12/15 00:28:05;;;;;;;363.00;329.92;;;5.20;99.90;;;;;;5046672;28;20113;-51
2021/12/15 00:30:32;;;;;;;173.70;104.28;;;5.20;99.90;;;;;;5039351;28;20043;-51
2021/12/15 00:32:58;;;;;;;163.90;107.07;;;5.00;99.90;;;;;;5041827;28;20044;-51
2021/12/15 00:35:25;;;;;;;170.48;112.03;;;5.00;99.90;;;;;;5078223;28;20082;-51
2021/12/15 00:37:51;;;;;;;184.63;112.07;;;5.10;99.90;;;;;;5031469;28;20416;-51
2021/12/15 00:40:20;;;;;;;232.07;138.55;;;5.10;99.90;;;;;;5084454;28;20033;-51
2021/12/15 00:42:46;;;;;;;227.18;130.13;;;5.10;99.90;;;;;;5082620;28;20069;-50
2021/12/15 00:45:12;;;;;;;219.48;132.15;;;5.00;99.90;;;;;;5063052;28;20384;-50
2021/12/15 00:47:38;;;;;;;191.43;115.95;;;5.00;99.90;;;;;;5042045;28;20428;-51
2021/12/15 00:50:07;;;;;;;190.38;108.20;;;5.00;99.90;;;;;;5079805;28;20028;-51
2021/12/15 00:52:36;;;;;;;201.05;112.47;;;4.80;99.90;;;;;;5039472;28;20032;-50
2021/12/15 00:55:04;;;;;;;200.25;117.13;;;4.70;99.90;;;;;;5085553;28;20024;-51
2021/12/15 00:57:30;;;;;;;196.63;122.30;;;4.70;99.90;;;;;;5078643;28;20033;-50
2021/12/15 00:59:56;;;;;;;223.10;127.72;;;4.80;99.90;;;;;;5001046;28;20044;-50
2021/12/15 01:02:22;;;;;;;221.25;116.97;;;4.70;99.90;;;;;;5060811;28;20442;-51
2021/12/15 01:04:48;;;;;;;222.93;117.18;;;4.70;99.90;;;;;;5076049;28;20051;-51
2021/12/15 01:07:14;;;;;;;252.60;130.70;;;4.40;99.90;;;;;;5045002;28;20379;-50
2021/12/15 01:09:48;;;;;;;265.70;136.95;;;4.20;99.90;;;;;;5087223;28;20107;-51
2021/12/15 01:20:41;;;;;;;399.25;153.98;;;4.20;99.90;;;;;;5029856;28;20103;-50
2021/12/15 01:23:13;;;;;;;299.58;129.95;;;4.20;99.90;;;;;;5032404;28;20034;-50
2021/12/15 01:25:46;;;;;;;388.77;197.25;;;4.40;99.90;;;;;;5043341;28;20029;-51
2021/12/15 01:28:12;;;;;;;318.42;141.35;;;4.60;99.90;;;;;;5024534;28;20037;-51
2021/12/15 01:30:43;;;;;;;471.52;166.00;;;4.40;99.90;;;;;;5037995;28;20041;-50
2021/12/15 01:33:10;;;;;;;279.17;138.88;;;4.40;99.90;;;;;;5024870;28;20045;-50
2021/12/15 01:35:39;;;;;;;426.13;163.25;;;4.50;99.90;;;;;;5039408;28;20478;-52
2021/12/15 01:38:05;;;;;;;511.75;170.68;;;4.60;99.90;;;;;;5029052;28;20167;-51
2021/12/15 01:40:36;;;;;;;318.02;136.85;;;4.80;99.90;;;;;;5036672;28;20060;-51
2021/12/15 01:43:48;;;;;;;312.30;133.13;;;5.00;99.90;;;;;;5052902;28;20041;-51
2021/12/15 01:49:07;;;;;;;397.77;145.15;;;5.00;99.90;;;;;;5072639;28;20412;-50
2021/12/15 01:51:32;;;;;;;286.42;142.27;;;5.00;99.90;;;;;;5024219;28;20040;-50
2021/12/15 01:53:59;;;;;;;346.98;158.30;;;5.10;99.90;;;;;;5026457;28;20034;-50
2021/12/15 01:56:26;;;;;;;313.85;140.65;;;5.10;99.90;;;;;;5030054;28;20124;-50
2021/12/15 01:58:51;;;;;;;282.00;141.00;;;5.20;99.90;;;;;;5028007;28;20037;-50
2021/12/15 02:01:17;;;;;;;366.25;148.25;;;5.20;99.90;;;;;;5028042;28;20041;-51
2021/12/15 02:03:43;;;;;;;290.63;132.40;;;5.20;99.90;;;;;;5027083;28;20190;-51
2021/12/15 02:06:10;;;;;;;505.50;163.90;;;5.20;99.90;;;;;;5014551;28;20081;-50
2021/12/15 02:08:37;;;;;;;505.85;158.95;;;5.30;99.90;;;;;;5028502;28;20477;-51
2021/12/15 02:11:04;;;;;;;444.55;151.95;;;5.30;99.90;;;;;;5030742;28;20041;-51
2021/12/15 02:13:29;;;;;;;513.90;161.32;;;5.30;99.90;;;;;;5026688;28;20116;-51
2021/12/15 02:15:58;;;;;;;491.35;164.35;;;5.40;99.90;;;;;;4976546;28;20644;-50
2021/12/15 02:18:29;;;;;;;494.67;160.50;;;5.40;99.90;;;;;;5027708;28;20017;-51
2021/12/15 02:21:01;;;;;;;530.45;165.00;;;5.50;99.90;;;;;;5029451;28;20048;-51
2021/12/15 02:23:37;;;;;;;450.25;151.15;;;5.50;99.90;;;;;;5070857;28;20032;-50
2021/12/15 02:26:08;;;;;;;462.42;150.45;;;5.40;99.90;;;;;;5080872;28;20062;-50
2021/12/15 02:28:37;;;;;;;455.30;144.88;;;5.50;99.90;;;;;;5070772;28;20086;-50
2021/12/15 02:31:17;;;;;;;406.55;135.93;;;5.40;99.90;;;;;;5081605;28;20462;-52
2021/12/15 02:33:57;;;;;;;378.83;130.95;;;5.40;99.90;;;;;;5080816;28;20028;-50
2021/12/15 02:39:09;;;;;;;281.45;114.18;;;5.30;99.90;;;;;;5069026;28;20115;-50
2021/12/15 02:41:36;;;;;;;261.08;112.63;;;5.30;99.90;;;;;;5073764;28;20043;-51
2021/12/15 02:44:06;;;;;;;350.77;126.93;;;5.20;99.90;;;;;;5041725;28;20033;-51
2021/12/15 02:46:33;;;;;;;298.92;120.78;;;5.30;99.90;;;;;;4941134;28;20400;-51
2021/12/15 02:49:00;;;;;;;368.95;124.63;;;5.30;99.90;;;;;;5030893;28;20420;-51
2021/12/15 02:51:27;;;;;;;389.23;130.43;;;5.40;99.90;;;;;;5030957;28;20033;-50
2021/12/15 02:53:57;;;;;;;310.63;114.75;;;5.40;99.90;;;;;;5031006;28;20536;-50
2021/12/15 02:56:23;;;;;;;348.55;120.78;;;5.30;99.90;;;;;;5015245;28;20501;-50
2021/12/15 02:58:54;;;;;;;432.30;133.07;;;5.00;99.90;;;;;;5030888;28;20026;-52
2021/12/15 03:01:35;;;;;;;308.95;113.57;;;4.90;99.90;;;;;;5031059;28;20033;-50
2021/12/15 03:06:48;;;;;;;380.10;119.88;;;5.00;99.90;;;;;;5030945;28;20036;-51
2021/12/15 03:17:06;;;;;;;299.23;123.30;;;4.20;99.90;;;;;;5051429;28;20108;-51
2021/12/15 03:19:32;;;;;;;289.13;120.40;;;4.00;99.90;;;;;;5050962;28;20049;-51
2021/12/15 03:21:57;;;;;;;385.23;143.52;;;3.80;99.90;;;;;;5053094;28;20025;-51
2021/12/15 03:24:25;;;;;;;367.48;132.13;;;3.70;99.90;;;;;;5050975;28;20037;-50
2021/12/15 03:27:03;;;;;;;317.33;125.82;;;3.60;99.90;;;;;;5052861;28;20512;-50
2021/12/15 03:37:40;;;;;;;295.52;102.10;;;3.80;99.90;;;;;;5052933;28;20037;-51
2021/12/15 03:40:18;;;;;;;222.52;86.20;;;4.10;99.90;;;;;;5051836;28;20045;-51
2021/12/15 03:42:58;;;;;;;404.13;98.63;;;4.40;99.90;;;;;;5052599;28;20033;-50
2021/12/15 03:45:32;;;;;;;271.40;85.68;;;4.60;99.90;;;;;;5052310;28;20029;-51
2021/12/15 03:48:01;;;;;;;206.63;87.40;;;4.60;99.90;;;;;;5053483;28;20108;-51
2021/12/15 03:50:30;;;;;;;300.77;88.88;;;4.40;99.90;;;;;;5056014;28;20040;-51
2021/12/15 03:52:56;;;;;;;227.38;86.50;;;4.40;99.90;;;;;;5056265;28;20037;-51
2021/12/15 03:55:26;;;;;;;302.80;94.22;;;4.60;99.90;;;;;;5056180;28;20554;-51
2021/12/15 03:57:53;;;;;;;347.15;98.82;;;4.80;99.90;;;;;;5055612;28;20032;-51
2021/12/15 04:00:20;;;;;;;162.43;83.30;;;4.90;99.90;;;;;;5055979;28;20091;-50
2021/12/15 04:02:47;;;;;;;165.63;80.75;;;5.00;99.90;;;;;;5055964;28;20021;-51
2021/12/15 04:05:16;;;;;;;232.40;91.82;;;5.00;99.90;;;;;;5065927;28;20503;-51
2021/12/15 04:07:43;;;;;;;161.95;84.25;;;5.00;99.90;;;;;;5076035;28;20109;-50
2021/12/15 04:10:12;;;;;;;187.10;88.78;;;5.00;99.90;;;;;;5075953;28;20028;-51
2021/12/15 04:12:38;;;;;;;221.10;94.88;;;5.00;99.90;;;;;;5075753;28;20021;-50
2021/12/15 04:17:57;;;;;;;351.75;110.32;;;5.10;99.90;;;;;;5075949;28;20085;-51
2021/12/15 04:20:25;;;;;;;380.55;110.70;;;5.20;99.90;;;;;;5075543;28;20029;-50
2021/12/15 04:22:51;;;;;;;306.50;109.93;;;5.20;99.90;;;;;;5075329;28;20086;-51
2021/12/15 04:25:25;;;;;;;354.98;106.13;;;5.20;99.90;;;;;;5075597;28;20344;-51
2021/12/15 04:27:58;;;;;;;396.50;111.43;;;5.30;99.90;;;;;;5075857;28;20029;-51
2021/12/15 04:30:26;;;;;;;358.10;106.00;;;5.30;99.90;;;;;;5075358;28;20528;-51
2021/12/15 04:32:54;;;;;;;349.63;101.18;;;5.30;99.90;;;;;;5075608;28;20150;-51
2021/12/15 04:35:20;;;;;;;268.88;96.18;;;5.30;99.90;;;;;;5057414;28;20119;-51
2021/12/15 04:37:47;;;;;;;438.63;114.10;;;5.20;99.90;;;;;;5075527;28;20117;-51
2021/12/15 04:40:15;;;;;;;340.52;102.53;;;5.10;99.90;;;;;;5075217;28;20028;-51
2021/12/15 04:42:43;;;;;;;211.57;92.40;;;5.00;99.90;;;;;;5075293;28;20017;-51
2021/12/15 04:45:13;;;;;;;457.50;112.53;;;4.70;99.90;;;;;;5075080;28;20059;-50
2021/12/15 04:47:39;;;;;;;408.52;101.32;;;4.70;99.90;;;;;;5072426;28;20036;-51
2021/12/15 04:50:06;;;;;;;443.23;103.70;;;4.80;99.90;;;;;;5075155;28;20036;-51
2021/12/15 04:52:32;;;;;;;394.15;103.28;;;4.80;99.90;;;;;;5075013;28;20376;-51
2021/12/15 04:54:59;;;;;;;282.75;90.22;;;4.90;99.90;;;;;;5075235;28;20024;-50
2021/12/15 04:57:27;;;;;;;323.55;95.63;;;4.90;99.90;;;;;;5074869;28;20119;-51
2021/12/15 04:59:54;;;;;;;336.52;90.88;;;4.90;99.90;;;;;;5074575;28;20032;-50
2021/12/15 05:02:21;;;;;;;244.07;83.38;;;5.00;99.90;;;;;;5068048;28;20024;-51
2021/12/15 05:04:48;;;;;;;211.88;79.57;;;5.00;99.90;;;;;;5048938;28;20056;-51
2021/12/15 05:07:15;;;;;;;362.50;92.93;;;5.00;99.90;;;;;;5074231;28;20020;-51
2021/12/15 05:09:43;;;;;;;212.57;87.90;;;5.00;99.90;;;;;;5062433;28;20389;-51
2021/12/15 05:12:10;;;;;;;193.07;79.20;;;4.90;99.90;;;;;;5054292;28;20043;-51
2021/12/15 05:14:35;;;;;;;283.73;90.00;;;4.80;99.90;;;;;;5024499;28;20428;-51
2021/12/15 05:17:02;;;;;;;185.63;84.57;;;4.80;99.90;;;;;;5022113;28;20045;-51
2021/12/15 05:19:28;;;;;;;182.50;79.60;;;4.90;99.90;;;;;;5016410;28;20041;-51
2021/12/15 05:21:58;;;;;;;173.60;79.57;;;5.00;99.90;;;;;;4993117;28;20034;-51
2021/12/15 05:24:30;;;;;;;213.02;78.05;;;4.90;99.90;;;;;;5015422;28;20041;-51
2021/12/15 05:27:05;;;;;;;168.18;74.80;;;4.90;99.90;;;;;;5032203;28;20039;-51
2021/12/15 05:29:31;;;;;;;175.63;76.40;;;5.00;99.90;;;;;;5027143;28;20103;-51
2021/12/15 05:31:58;;;;;;;239.77;83.28;;;4.70;99.90;;;;;;5030075;28;20038;-51
2021/12/15 05:34:25;;;;;;;248.13;81.38;;;4.80;99.90;;;;;;5030118;28;20040;-51
2021/12/15 05:36:52;;;;;;;135.70;69.90;;;4.80;99.90;;;;;;5031460;28;20377;-50
2021/12/15 05:39:19;;;;;;;150.10;67.57;;;4.70;99.90;;;;;;5028537;28;20033;-51
2021/12/15 05:41:46;;;;;;;185.25;77.38;;;4.60;99.90;;;;;;5019293;28;20029;-51
2021/12/15 05:44:12;;;;;;;181.02;77.10;;;4.40;99.90;;;;;;5013076;28;20030;-51
2021/12/15 05:46:38;;;;;;;213.07;80.55;;;4.40;99.90;;;;;;5034846;28;20050;-52
2021/12/15 05:49:05;;;;;;;221.55;78.88;;;4.60;99.90;;;;;;5071957;28;20056;-51
2021/12/15 05:51:31;;;;;;;209.27;82.53;;;4.50;99.90;;;;;;5067112;28;20615;-51
2021/12/15 05:53:57;;;;;;;177.52;79.00;;;4.60;99.90;;;;;;5032419;28;20534;-51
2021/12/15 05:56:23;;;;;;;157.10;75.15;;;4.70;99.90;;;;;;5020846;28;20032;-51
2021/12/15 05:58:49;;;;;;;163.68;76.68;;;4.80;99.90;;;;;;5072447;28;20028;-50
2021/12/15 06:01:15;;;;;;;152.82;76.32;;;4.70;99.90;;;;;;5073020;28;20056;-51
2021/12/15 06:03:41;;;;;;;129.88;68.07;;;4.70;99.90;;;;;;5066227;28;20475;-51
2021/12/15 06:06:08;;;;;;;133.07;74.60;;;4.70;99.90;;;;;;5029329;28;20385;-51
2021/12/15 06:08:33;;;;;;;130.05;74.28;;;4.50;99.90;;;;;;5051433;28;20035;-51
2021/12/15 06:10:59;;;;;;;106.75;57.55;;;4.60;99.90;;;;;;5050030;28;20037;-51
2021/12/15 06:13:27;;;;;;;96.32;54.20;;;4.50;99.90;;;;;;5052481;28;20021;-51
2021/12/15 06:15:55;;;;;;;87.57;49.92;;;4.50;99.90;;;;;;5047326;28;20029;-55
2021/12/15 06:18:22;;;;;;;79.00;47.28;;;4.30;99.90;;;;;;5048200;28;20032;-48
2021/12/15 06:20:49;;;;;;;66.80;39.88;;;4.30;99.90;;;;;;5050711;28;20032;-50
2021/12/15 06:23:20;;;;;;;74.03;43.45;;;4.00;99.90;;;;;;5044048;28;20374;-50
2021/12/15 06:25:53;;;;;;;66.72;40.75;;;3.90;99.90;;;;;;5036567;28;20052;-50
2021/12/15 06:28:20;;;;;;;68.82;39.38;;;3.80;99.90;;;;;;5048555;28;20025;-50
2021/12/15 06:30:57;;;;;;;91.00;51.17;;;3.70;99.90;;;;;;5043926;28;20033;-51
2021/12/15 06:33:24;;;;;;;74.65;42.83;;;3.80;99.90;;;;;;5051406;28;20045;-51
2021/12/15 06:35:57;;;;;;;67.10;38.65;;;3.80;99.90;;;;;;5051234;28;20028;-50
2021/12/15 06:38:29;;;;;;;66.50;41.75;;;3.80;99.90;;;;;;5044946;28;20396;-50
2021/12/15 06:40:55;;;;;;;66.15;38.45;;;4.00;99.90;;;;;;5045074;28;20033;-49
2021/12/15 06:43:22;;;;;;;69.50;36.92;;;4.00;99.90;;;;;;5051029;28;20903;-49
2021/12/15 06:59:40;;;;;;;56.92;31.95;;;4.20;99.90;;;;;;5033586;28;20037;-51
2021/12/15 07:02:06;;;;;;;58.95;32.60;;;4.30;99.90;;;;;;5033654;28;20027;-51
2021/12/15 07:04:33;;;;;;;55.05;32.55;;;4.30;99.90;;;;;;5038443;28;20509;-53
2021/12/15 07:07:04;;;;;;;58.78;34.45;;;4.50;99.90;;;;;;5018555;28;20124;-51
2021/12/15 07:09:33;;;;;;;61.35;34.47;;;4.50;99.90;;;;;;5052668;28;20417;-50
2021/12/15 07:12:03;;;;;;;59.53;33.75;;;4.60;99.90;;;;;;5053070;28;20037;-50
2021/12/15 07:14:29;;;;;;;72.10;38.42;;;4.60;99.90;;;;;;5053265;28;20087;-50
2021/12/15 07:16:57;;;;;;;73.95;39.85;;;4.60;99.90;;;;;;5058483;28;20111;-50
2021/12/15 07:24:32;;;;;;;89.65;43.70;;;4.50;99.90;;;;;;5074774;28;20025;-50
2021/12/15 07:26:59;;;;;;;88.22;45.55;;;4.30;99.90;;;;;;5076352;28;20032;-49
2021/12/15 07:29:29;;;;;;;63.95;32.25;;;4.00;99.90;;;;;;5073275;28;20101;-50
2021/12/15 07:31:56;;;;;;;111.95;55.35;;;3.70;99.90;;;;;;5064541;28;20463;-49
2021/12/15 07:34:22;;;;;;;85.35;39.38;;;3.70;99.90;;;;;;5075169;28;20089;-49
2021/12/15 07:36:48;;;;;;;95.07;41.65;;;3.80;99.90;;;;;;5076461;28;20115;-49
2021/12/15 07:39:15;;;;;;;138.10;61.05;;;3.90;99.90;;;;;;5076491;28;20047;-49
2021/12/15 07:41:50;;;;;;;207.20;98.38;;;4.00;99.90;;;;;;5076386;28;20743;-50
2021/12/15 07:44:17;;;;;;;118.63;48.83;;;4.00;99.90;;;;;;5076631;28;20387;-48
2021/12/15 07:46:45;;;;;;;127.38;45.95;;;3.90;99.90;;;;;;5076272;28;20059;-49
2021/12/15 07:49:12;;;;;;;116.03;41.47;;;3.90;99.90;;;;;;5058263;28;20491;-50
2021/12/15 07:51:40;;;;;;;148.40;65.88;;;3.90;99.90;;;;;;5076809;28;20047;-51
2021/12/15 07:54:07;;;;;;;134.32;41.42;;;3.70;99.90;;;;;;5076226;28;20447;-50
2021/12/15 07:56:33;;;;;;;136.88;30.88;;;3.80;99.90;;;;;;5076318;28;20029;-53
2021/12/15 07:58:58;;;;;;;77.50;27.50;;;3.80;99.90;;;;;;5076060;28;20475;-51
2021/12/15 08:01:24;;;;;;;93.88;31.05;;;3.70;99.90;;;;;;5076028;28;20033;-49
2021/12/15 08:03:54;;;;;;;75.80;23.63;;;3.70;99.90;;;;;;5076317;28;20036;-49
2021/12/15 08:06:21;;;;;;;45.28;19.30;;;3.50;99.90;;;;;;5076601;28;20044;-49
2021/12/15 08:08:47;;;;;;;79.43;24.60;;;3.40;99.90;;;;;;5075956;28;20029;-50
2021/12/15 08:11:13;;;;;;;75.65;28.20;;;3.40;99.90;;;;;;5076044;28;20503;-49
2021/12/15 08:13:39;;;;;;;75.68;26.45;;;3.60;99.90;;;;;;5076042;28;20032;-49
2021/12/15 08:16:05;;;;;;;87.07;30.25;;;3.30;99.90;;;;;;5076076;28;20029;-50
2021/12/15 08:18:31;;;;;;;73.07;30.13;;;3.30;99.90;;;;;;5040984;28;20418;-50
2021/12/15 08:20:59;;;;;;;65.35;27.15;;;3.50;99.90;;;;;;5057156;28;20166;-48
2021/12/15 08:23:25;;;;;;;80.43;28.30;;;3.30;99.90;;;;;;5056416;28;20051;-49
2021/12/15 08:25:51;;;;;;;103.40;31.50;;;3.20;99.90;;;;;;5075830;28;20372;-50
2021/12/15 08:28:17;;;;;;;80.55;27.77;;;3.30;99.90;;;;;;5040533;28;20037;-49
2021/12/15 08:30:45;;;;;;;71.25;23.60;;;3.50;99.90;;;;;;5040470;28;20047;-50
2021/12/15 08:33:16;;;;;;;61.15;25.15;;;3.60;99.90;;;;;;5075039;28;20056;-49
2021/12/15 08:35:57;;;;;;;68.68;27.17;;;3.60;99.90;;;;;;5041287;28;20067;-50
2021/12/15 08:38:25;;;;;;;67.00;25.02;;;3.80;99.90;;;;;;5075493;28;20028;-49
2021/12/15 08:40:51;;;;;;;73.50;24.77;;;3.90;99.90;;;;;;5075261;28;20024;-50
2021/12/15 08:43:17;;;;;;;62.85;23.52;;;3.70;99.90;;;;;;5036750;28;20043;-48
2021/12/15 08:45:55;;;;;;;54.42;22.33;;;3.60;99.90;;;;;;5055500;28;20116;-50
2021/12/15 08:48:21;;;;;;;68.50;26.63;;;3.60;99.90;;;;;;5053423;28;20047;-51
2021/12/15 08:50:47;;;;;;;71.22;28.67;;;3.60;99.90;;;;;;5055131;28;20025;-49
2021/12/15 08:53:14;;;;;;;63.55;25.05;;;3.70;99.90;;;;;;5020084;28;20094;-50
2021/12/15 08:55:43;;;;;;;85.88;24.55;;;3.60;99.90;;;;;;5055086;28;20021;-50
2021/12/15 08:58:11;;;;;;;75.32;27.08;;;3.40;99.90;;;;;;5036589;28;20388;-50
2021/12/15 09:00:38;;;;;;;69.90;26.83;;;3.40;99.90;;;;;;5054927;28;20025;-50
2021/12/15 09:03:04;;;;;;;49.55;21.20;;;3.40;99.90;;;;;;5019998;28;20033;-51
2021/12/15 09:05:30;;;;;;;49.33;18.65;;;3.20;99.90;;;;;;5054843;28;20044;-51
2021/12/15 09:07:59;;;;;;;150.05;70.03;;;3.20;99.90;;;;;;5055132;28;20512;-50
2021/12/15 09:10:29;;;;;;;136.60;54.90;;;3.00;99.90;;;;;;5055000;28;20044;-49
2021/12/15 09:12:55;;;;;;;281.55;109.55;;;2.90;99.90;;;;;;5054698;28;20032;-50
2021/12/15 09:15:21;;;;;;;196.48;72.45;;;2.90;99.90;;;;;;5051487;28;20491;-51
2021/12/15 09:17:47;;;;;;;549.70;254.95;;;2.80;99.90;;;;;;5067012;28;20032;-49
2021/12/15 09:20:16;;;;;;;461.02;213.70;;;3.10;99.90;;;;;;5061910;28;20473;-50
2021/12/15 09:22:42;;;;;;;324.63;138.32;;;3.40;99.90;;;;;;5065164;28;20067;-50
2021/12/15 09:25:11;;;;;;;100.75;46.42;;;3.50;99.90;;;;;;5067001;28;20444;-49
2021/12/15 09:27:39;;;;;;;85.57;47.00;;;3.60;99.90;;;;;;5047596;28;20051;-51
2021/12/15 09:30:13;;;;;;;51.88;25.67;;;3.80;99.90;;;;;;5065088;28;20476;-49
2021/12/15 09:32:39;;;;;;;93.70;41.95;;;3.70;99.90;;;;;;5030436;28;20566;-51
2021/12/15 09:35:07;;;;;;;46.88;22.13;;;3.70;99.90;;;;;;5029886;28;20033;-50
2021/12/15 09:37:33;;;;;;;45.65;28.42;;;3.70;99.90;;;;;;5038609;28;20037;-49
2021/12/15 09:39:59;;;;;;;41.58;22.90;;;3.60;99.90;;;;;;5073962;28;20024;-50
2021/12/15 09:42:33;;;;;;;38.08;18.25;;;3.70;99.90;;;;;;5072953;28;20064;-48
2021/12/15 09:45:15;;;;;;;27.38;11.55;;;3.60;99.90;;;;;;5071855;28;20399;-49
2021/12/15 10:06:45;;;;;;;38.13;16.13;;;3.50;99.90;;;;;;4972396;28;20045;-51
2021/12/15 10:17:41;;;;;;;40.20;18.75;;;3.30;99.90;;;;;;4941415;29;20139;-50
2021/12/15 10:20:08;;;;;;;;;;;3.30;99.90;;;;;;4934279;29;20507;-53
2021/12/15 10:22:45;;;;;;;51.55;21.40;;;3.30;99.90;;;;;;4934355;29;19906;-50
2021/12/15 10:25:48;;;;;;;50.13;25.00;;;3.60;99.90;;;;;;4934161;29;20488;-49
2021/12/15 10:28:20;;;;;;;44.28;22.08;;;3.60;99.90;;;;;;4963552;28;20406;-50
2021/12/15 10:31:17;;;;;;;47.20;21.88;;;3.60;99.90;;;;;;4972612;28;20043;-50
2021/12/15 10:33:55;;;;;;;38.53;18.92;;;3.70;99.90;;;;;;4969840;28;20038;-49
2021/12/15 10:36:20;;;;;;;44.40;20.00;;;3.70;99.90;;;;;;4971974;28;20050;-50
2021/12/15 10:38:57;;;;;;;40.60;20.90;;;3.70;99.90;;;;;;4991647;28;20034;-50
2021/12/15 10:41:25;;;;;;;41.55;20.77;;;3.80;99.90;;;;;;5003017;28;20041;-50
2021/12/15 10:43:59;;;;;;;37.47;17.38;;;3.80;99.90;;;;;;5011450;28;20026;-49
2021/12/15 10:46:36;;;;;;;42.92;20.85;;;3.80;99.90;;;;;;5009513;28;20602;-49
2021/12/15 10:49:05;;;;;;;43.38;19.65;;;3.90;99.90;;;;;;5016491;28;20054;-50
2021/12/15 10:51:39;;;;;;;40.45;19.73;;;4.00;99.90;;;;;;5011300;28;20045;-50
2021/12/15 10:54:14;;;;;;;44.42;20.10;;;4.10;99.90;;;;;;5016903;28;20037;-50
2021/12/15 10:56:54;;;;;;;46.67;22.33;;;3.80;99.90;;;;;;5031785;28;20772;-49
2021/12/15 10:59:21;;;;;;;72.47;25.05;;;4.00;99.90;;;;;;5035189;28;20033;-50
2021/12/15 11:01:49;;;;;;;48.10;24.23;;;4.30;99.90;;;;;;5035161;28;20061;-51
2021/12/15 11:04:31;;;;;;;60.17;23.73;;;4.50;99.90;;;;;;5034349;28;20444;-50
2021/12/15 11:07:29;;;;;;;48.90;21.08;;;4.50;99.90;;;;;;4996386;28;20042;-50
2021/12/15 11:10:05;;;;;;;41.70;16.60;;;4.60;99.90;;;;;;5015099;28;20042;-49
2021/12/15 11:12:33;;;;;;;56.40;22.00;;;4.40;99.90;;;;;;5015157;28;20048;-51
2021/12/15 11:15:06;;;;;;;60.78;22.80;;;4.50;99.90;;;;;;5015181;28;20033;-51
2021/12/15 11:17:37;;;;;;;59.08;25.23;;;4.40;99.90;;;;;;5015041;28;20045;-51
2021/12/15 11:20:12;;;;;;;66.90;22.80;;;4.70;99.90;;;;;;5015230;28;20046;-51
2021/12/15 11:22:53;;;;;;;65.63;22.33;;;4.40;99.90;;;;;;5015022;28;20042;-51
2021/12/15 11:25:31;;;;;;;61.95;21.23;;;4.50;99.90;;;;;;4998796;28;20042;-51
2021/12/15 11:28:08;;;;;;;63.17;20.20;;;4.40;99.90;;;;;;5040661;28;20048;-51
2021/12/15 11:30:53;;;;;;;39.38;17.77;;;4.40;99.90;;;;;;5056875;28;20075;-51
2021/12/15 11:33:50;;;;;;;83.18;21.23;;;4.50;99.90;;;;;;5056675;28;20032;-51
2021/12/15 11:36:25;;;;;;;56.90;18.85;;;4.40;99.90;;;;;;5026890;28;20037;-51
2021/12/15 11:38:56;;;;;;;82.47;20.45;;;4.40;99.90;;;;;;5056779;28;20108;-51
2021/12/15 11:41:36;;;;;;;57.88;21.55;;;4.50;99.90;;;;;;5056646;28;20028;-51
2021/12/15 11:44:24;;;;;;;77.65;24.60;;;4.50;99.90;;;;;;5056472;28;20484;-51
2021/12/15 11:46:52;;;;;;;50.00;20.48;;;4.70;99.90;;;;;;5038036;28;20044;-50
2021/12/15 11:49:30;;;;;;;56.08;23.40;;;4.90;99.90;;;;;;5054675;28;20053;-51
2021/12/15 11:52:00;;;;;;;61.25;23.25;;;4.80;99.90;;;;;;5057777;28;20064;-51
2021/12/15 11:54:36;;;;;;;61.42;26.33;;;4.50;99.90;;;;;;5056059;28;20028;-51
2021/12/15 11:57:03;;;;;;;65.38;23.42;;;4.70;99.90;;;;;;5063309;28;20025;-51
2021/12/15 11:59:29;;;;;;;62.75;27.42;;;4.90;99.90;;;;;;5073562;28;20048;-51
2021/12/15 12:02:22;;;;;;;66.20;29.15;;;4.80;99.90;;;;;;5076899;28;20525;-51
2021/12/15 12:04:49;;;;;;;52.47;21.23;;;4.90;99.90;;;;;;5073573;28;20404;-51
2021/12/15 12:07:17;;;;;;;57.20;27.27;;;4.90;99.90;;;;;;5075328;28;20057;-51
2021/12/15 12:09:47;;;;;;;53.33;25.33;;;4.80;99.90;;;;;;5074502;28;20476;-51
2021/12/15 12:12:16;;;;;;;50.72;20.95;;;4.90;99.90;;;;;;5038373;28;20044;-50
2021/12/15 12:15:00;;;;;;;64.30;28.20;;;4.70;99.90;;;;;;5065274;28;20047;-51
2021/12/15 12:17:35;;;;;;;70.70;27.02;;;5.00;99.90;;;;;;5075994;28;20399;-54
2021/12/15 12:20:10;;;;;;;70.95;28.42;;;4.90;99.90;;;;;;5072990;28;20105;-51
2021/12/15 12:22:38;;;;;;;72.25;30.17;;;4.90;99.90;;;;;;5040231;28;20032;-51
2021/12/15 12:25:16;;;;;;;72.80;35.97;;;5.00;99.90;;;;;;5073952;28;20078;-51
2021/12/15 12:27:44;;;;;;;63.95;29.98;;;5.10;99.90;;;;;;5075631;28;20029;-51
2021/12/15 12:30:17;;;;;;;71.93;31.80;;;5.00;99.90;;;;;;5076023;28;20033;-51
2021/12/15 12:32:44;;;;;;;72.68;35.70;;;5.00;99.90;;;;;;5074266;28;20032;-51
2021/12/15 12:35:11;;;;;;;63.72;34.30;;;4.80;99.90;;;;;;5074016;28;20101;-51
2021/12/15 12:37:38;;;;;;;100.35;49.67;;;4.90;99.90;;;;;;5075782;28;20020;-51
2021/12/15 12:40:17;;;;;;;82.60;43.00;;;4.80;99.90;;;;;;5075624;28;20468;-51
2021/12/15 12:42:43;;;;;;;88.85;46.83;;;4.70;99.90;;;;;;5072728;28;20032;-51
2021/12/15 12:45:32;;;;;;;58.22;30.08;;;4.80;99.90;;;;;;5072862;28;20033;-52
2021/12/15 12:59:41;;;;;;;64.35;32.88;;;4.60;99.90;;;;;;4981996;28;20081;-51
2021/12/15 13:05:46;;;;;;;59.78;33.08;;;4.90;99.90;;;;;;4921332;29;20063;-50
2021/12/15 13:08:14;;;;;;;60.58;32.65;;;4.90;99.90;;;;;;4897560;29;20044;-50
2021/12/15 13:10:53;;;;;;;64.07;33.08;;;4.90;99.90;;;;;;4899226;29;20059;-52
2021/12/15 13:13:47;;;;;;;64.28;36.33;;;4.90;99.90;;;;;;4899529;29;20040;-51
2021/12/15 13:16:13;;;;;;;61.97;34.17;;;4.90;99.90;;;;;;4916321;29;20052;-50
2021/12/15 13:18:48;;;;;;;71.20;36.60;;;4.90;99.90;;;;;;4916365;29;20047;-49
2021/12/15 13:21:17;;;;;;;65.53;36.17;;;5.00;99.90;;;;;;4916001;29;20071;-50
2021/12/15 13:23:59;;;;;;;65.28;36.80;;;5.00;99.90;;;;;;4916114;29;20044;-56
2021/12/15 13:29:36;;;;;;;62.10;36.65;;;5.10;99.90;;;;;;4954290;29;20086;-50
2021/12/15 13:32:03;;;;;;;61.85;35.50;;;5.00;99.90;;;;;;4952772;29;20031;-50
2021/12/15 13:34:43;;;;;;;61.22;36.90;;;5.00;99.90;;;;;;4957601;28;20047;-52
2021/12/15 13:37:09;;;;;;;61.83;38.25;;;5.10;99.90;;;;;;4952371;29;20032;-50
2021/12/15 13:39:48;;;;;;;57.35;32.78;;;5.00;99.90;;;;;;4947739;28;20135;-50
2021/12/15 13:42:51;;;;;;;58.88;32.17;;;4.90;99.90;;;;;;4992724;28;20113;-52
2021/12/15 13:45:29;;;;;;;60.10;36.17;;;4.90;99.90;;;;;;4992689;28;20636;-51
2021/12/15 13:47:55;;;;;;;63.83;36.28;;;4.90;99.90;;;;;;4992711;28;20427;-49
2021/12/15 13:50:26;;;;;;;72.97;41.38;;;4.90;99.90;;;;;;4959206;28;20070;-53
2021/12/15 13:52:59;;;;;;;88.82;49.53;;;4.90;99.90;;;;;;4972656;28;20115;-50
2021/12/15 13:55:30;;;;;;;73.22;42.58;;;4.90;99.90;;;;;;5022125;28;20375;-51
2021/12/15 13:58:20;;;;;;;74.80;43.75;;;4.90;99.90;;;;;;5074178;28;20035;-49
2021/12/15 14:01:06;;;;;;;64.32;38.22;;;4.80;99.90;;;;;;5068336;28;20048;-50
2021/12/15 14:03:48;;;;;;;77.13;45.88;;;4.80;99.90;;;;;;5071125;28;20054;-50
2021/12/15 14:06:22;;;;;;;73.72;43.88;;;4.80;99.90;;;;;;4985902;28;20052;-51
2021/12/15 14:08:55;;;;;;;65.47;39.53;;;4.80;99.90;;;;;;5021710;28;20041;-50
2021/12/15 14:11:32;;;;;;;70.25;39.92;;;4.80;99.90;;;;;;5028953;28;20961;-50
2021/12/15 14:13:57;;;;;;;63.08;36.95;;;4.80;99.90;;;;;;5027846;28;20112;-51
2021/12/15 14:16:35;;;;;;;65.07;34.75;;;4.90;99.90;;;;;;5025803;28;20140;-50
2021/12/15 14:19:05;;;;;;;65.78;36.92;;;5.00;99.90;;;;;;5003469;28;20029;-50
2021/12/15 14:21:34;;;;;;;59.47;33.33;;;5.00;99.90;;;;;;4970738;28;20033;-48
2021/12/15 14:24:00;;;;;;;60.10;36.50;;;5.10;99.90;;;;;;5022195;28;20025;-52